sensor_id;sensor_type;location;lat;lon;timestamp;temperature;humidity
66594;DHT22;53450;42.584;23.366;2024-02-28T00:00:45;4.96;79.47
66594;DHT22;53450;42.584;23.366;2024-02-28T00:03:11;4.91;79.38
66594;DHT22;53450;42.584;23.366;2024-02-28T00:05:36;4.89;79.83
66594;DHT22;53450;42.584;23.366;2024-02-28T00:08:02;4.87;79.81
66594;DHT22;53450;42.584;23.366;2024-02-28T00:10:27;4.85;79.94
66594;DHT22;53450;42.584;23.366;2024-02-28T00:12:53;4.83;79.90
66594;DHT22;53450;42.584;23.366;2024-02-28T00:15:19;4.80;79.71
66594;DHT22;53450;42.584;23.366;2024-02-28T00:17:51;4.68;79.72
66594;DHT22;53450;42.584;23.366;2024-02-28T00:20:17;4.67;79.86
66594;DHT22;53450;42.584;23.366;2024-02-28T00:22:44;4.71;80.04
66594;DHT22;53450;42.584;23.366;2024-02-28T00:25:10;4.74;79.50
66594;DHT22;53450;42.584;23.366;2024-02-28T00:27:36;4.64;79.66
66594;DHT22;53450;42.584;23.366;2024-02-28T00:30:06;4.56;79.85
66594;DHT22;53450;42.584;23.366;2024-02-28T00:32:34;4.56;79.87
66594;DHT22;53450;42.584;23.366;2024-02-28T00:35:00;4.54;79.87
66594;DHT22;53450;42.584;23.366;2024-02-28T00:37:25;4.49;79.93
66594;DHT22;53450;42.584;23.366;2024-02-28T00:39:51;4.49;80.10
66594;DHT22;53450;42.584;23.366;2024-02-28T00:42:17;4.49;80.11
66594;DHT22;53450;42.584;23.366;2024-02-28T00:44:42;4.37;80.27
66594;DHT22;53450;42.584;23.366;2024-02-28T00:47:09;4.25;80.87
66594;DHT22;53450;42.584;23.366;2024-02-28T00:49:35;4.40;81.00
66594;DHT22;53450;42.584;23.366;2024-02-28T00:52:00;4.44;80.30
66594;DHT22;53450;42.584;23.366;2024-02-28T00:54:26;4.44;80.15
66594;DHT22;53450;42.584;23.366;2024-02-28T00:56:52;4.44;80.18
66594;DHT22;53450;42.584;23.366;2024-02-28T00:59:18;4.50;80.15
66594;DHT22;53450;42.584;23.366;2024-02-28T01:01:51;4.50;80.00
66594;DHT22;53450;42.584;23.366;2024-02-28T01:04:17;4.42;80.06
66594;DHT22;53450;42.584;23.366;2024-02-28T01:06:42;4.37;80.34
66594;DHT22;53450;42.584;23.366;2024-02-28T01:09:08;4.39;80.35
66594;DHT22;53450;42.584;23.366;2024-02-28T01:11:34;4.42;80.38
66594;DHT22;53450;42.584;23.366;2024-02-28T01:13:59;4.47;80.47
66594;DHT22;53450;42.584;23.366;2024-02-28T01:16:25;4.50;80.04
66594;DHT22;53450;42.584;23.366;2024-02-28T01:18:51;4.47;79.85
66594;DHT22;53450;42.584;23.366;2024-02-28T01:21:17;4.39;79.81
66594;DHT22;53450;42.584;23.366;2024-02-28T01:23:42;4.29;79.92
66594;DHT22;53450;42.584;23.366;2024-02-28T01:26:08;4.30;80.22
66594;DHT22;53450;42.584;23.366;2024-02-28T01:28:34;4.34;80.23
66594;DHT22;53450;42.584;23.366;2024-02-28T01:31:02;4.32;80.34
66594;DHT22;53450;42.584;23.366;2024-02-28T01:33:37;4.22;80.27
66594;DHT22;53450;42.584;23.366;2024-02-28T01:36:06;4.16;80.50
66594;DHT22;53450;42.584;23.366;2024-02-28T01:38:34;4.13;80.69
66594;DHT22;53450;42.584;23.366;2024-02-28T01:41:00;4.09;81.23
66594;DHT22;53450;42.584;23.366;2024-02-28T01:43:25;4.09;80.93
66594;DHT22;53450;42.584;23.366;2024-02-28T01:45:51;4.10;81.03
66594;DHT22;53450;42.584;23.366;2024-02-28T01:48:17;4.09;81.11
66594;DHT22;53450;42.584;23.366;2024-02-28T01:50:42;4.05;80.96
66594;DHT22;53450;42.584;23.366;2024-02-28T01:53:09;4.05;81.41
66594;DHT22;53450;42.584;23.366;2024-02-28T01:55:37;4.02;81.92
66594;DHT22;53450;42.584;23.366;2024-02-28T01:58:03;4.05;82.19
66594;DHT22;53450;42.584;23.366;2024-02-28T02:00:33;4.06;82.14
66594;DHT22;53450;42.584;23.366;2024-02-28T02:03:02;4.02;81.81
66594;DHT22;53450;42.584;23.366;2024-02-28T02:05:28;4.03;81.98
66594;DHT22;53450;42.584;23.366;2024-02-28T02:07:55;3.99;81.90
66594;DHT22;53450;42.584;23.366;2024-02-28T02:10:22;3.95;81.83
66594;DHT22;53450;42.584;23.366;2024-02-28T02:12:48;3.95;81.77
66594;DHT22;53450;42.584;23.366;2024-02-28T02:15:14;3.95;81.69
66594;DHT22;53450;42.584;23.366;2024-02-28T02:17:39;3.89;81.52
66594;DHT22;53450;42.584;23.366;2024-02-28T02:20:05;3.78;82.15
66594;DHT22;53450;42.584;23.366;2024-02-28T02:22:38;3.75;82.11
66594;DHT22;53450;42.584;23.366;2024-02-28T02:25:05;3.74;82.19
66594;DHT22;53450;42.584;23.366;2024-02-28T02:27:31;3.67;82.50
66594;DHT22;53450;42.584;23.366;2024-02-28T02:29:57;3.73;82.04
66594;DHT22;53450;42.584;23.366;2024-02-28T02:32:22;3.75;81.74
66594;DHT22;53450;42.584;23.366;2024-02-28T02:34:48;3.70;81.91
66594;DHT22;53450;42.584;23.366;2024-02-28T02:37:13;3.74;82.00
66594;DHT22;53450;42.584;23.366;2024-02-28T02:39:39;3.71;81.82
66594;DHT22;53450;42.584;23.366;2024-02-28T02:42:05;3.67;81.87
66594;DHT22;53450;42.584;23.366;2024-02-28T02:44:30;3.65;81.85
66594;DHT22;53450;42.584;23.366;2024-02-28T02:46:56;3.60;81.95
66594;DHT22;53450;42.584;23.366;2024-02-28T02:49:21;3.61;82.18
66594;DHT22;53450;42.584;23.366;2024-02-28T02:51:47;3.50;82.27
66594;DHT22;53450;42.584;23.366;2024-02-28T02:54:13;3.55;82.46
66594;DHT22;53450;42.584;23.366;2024-02-28T02:56:44;3.48;82.13
66594;DHT22;53450;42.584;23.366;2024-02-28T02:59:10;3.57;82.30
66594;DHT22;53450;42.584;23.366;2024-02-28T03:01:36;3.61;81.84
66594;DHT22;53450;42.584;23.366;2024-02-28T03:04:02;3.58;81.59
66594;DHT22;53450;42.584;23.366;2024-02-28T03:06:28;3.58;81.95
66594;DHT22;53450;42.584;23.366;2024-02-28T03:08:53;3.57;81.81
66594;DHT22;53450;42.584;23.366;2024-02-28T03:11:19;3.50;81.55
66594;DHT22;53450;42.584;23.366;2024-02-28T03:13:45;3.54;81.71
66594;DHT22;53450;42.584;23.366;2024-02-28T03:16:10;3.54;81.91
66594;DHT22;53450;42.584;23.366;2024-02-28T03:18:36;3.48;81.58
66594;DHT22;53450;42.584;23.366;2024-02-28T03:21:03;3.48;81.50
66594;DHT22;53450;42.584;23.366;2024-02-28T03:23:29;3.45;81.52
66594;DHT22;53450;42.584;23.366;2024-02-28T03:25:54;3.37;81.70
66594;DHT22;53450;42.584;23.366;2024-02-28T03:28:23;3.34;82.01
66594;DHT22;53450;42.584;23.366;2024-02-28T03:30:49;3.31;82.13
66594;DHT22;53450;42.584;23.366;2024-02-28T03:33:14;3.38;81.95
66594;DHT22;53450;42.584;23.366;2024-02-28T03:35:43;3.45;81.63
66594;DHT22;53450;42.584;23.366;2024-02-28T03:38:09;3.43;81.43
66594;DHT22;53450;42.584;23.366;2024-02-28T03:40:34;3.37;82.32
66594;DHT22;53450;42.584;23.366;2024-02-28T03:43:00;3.41;82.96
66594;DHT22;53450;42.584;23.366;2024-02-28T03:45:28;3.37;82.85
66594;DHT22;53450;42.584;23.366;2024-02-28T03:47:54;3.40;82.34
66594;DHT22;53450;42.584;23.366;2024-02-28T03:50:22;3.51;82.46
66594;DHT22;53450;42.584;23.366;2024-02-28T03:52:51;3.54;82.63
66594;DHT22;53450;42.584;23.366;2024-02-28T03:55:16;3.53;82.56
66594;DHT22;53450;42.584;23.366;2024-02-28T03:57:42;3.53;82.83
66594;DHT22;53450;42.584;23.366;2024-02-28T04:00:12;3.53;82.34
66594;DHT22;53450;42.584;23.366;2024-02-28T04:02:40;3.45;82.58
66594;DHT22;53450;42.584;23.366;2024-02-28T04:05:06;3.51;82.64
66594;DHT22;53450;42.584;23.366;2024-02-28T04:07:31;3.47;82.47
66594;DHT22;53450;42.584;23.366;2024-02-28T04:09:57;3.47;82.59
66594;DHT22;53450;42.584;23.366;2024-02-28T04:12:25;3.37;82.65
66594;DHT22;53450;42.584;23.366;2024-02-28T04:14:51;3.31;82.94
66594;DHT22;53450;42.584;23.366;2024-02-28T04:17:20;3.31;82.29
66594;DHT22;53450;42.584;23.366;2024-02-28T04:19:46;3.27;82.61
66594;DHT22;53450;42.584;23.366;2024-02-28T04:22:11;3.27;82.83
66594;DHT22;53450;42.584;23.366;2024-02-28T04:24:37;3.19;82.54
66594;DHT22;53450;42.584;23.366;2024-02-28T04:27:05;3.23;83.04
66594;DHT22;53450;42.584;23.366;2024-02-28T04:29:31;3.20;83.16
66594;DHT22;53450;42.584;23.366;2024-02-28T04:31:57;3.09;83.29
66594;DHT22;53450;42.584;23.366;2024-02-28T04:34:25;3.19;83.59
66594;DHT22;53450;42.584;23.366;2024-02-28T04:36:51;3.17;83.07
66594;DHT22;53450;42.584;23.366;2024-02-28T04:39:23;3.15;83.19
66594;DHT22;53450;42.584;23.366;2024-02-28T04:41:55;3.22;83.41
66594;DHT22;53450;42.584;23.366;2024-02-28T04:44:27;3.20;83.05
66594;DHT22;53450;42.584;23.366;2024-02-28T04:47:05;3.12;83.08
66594;DHT22;53450;42.584;23.366;2024-02-28T04:49:31;3.17;83.35
66594;DHT22;53450;42.584;23.366;2024-02-28T04:51:58;3.16;83.18
66594;DHT22;53450;42.584;23.366;2024-02-28T04:54:24;3.15;83.59
66594;DHT22;53450;42.584;23.366;2024-02-28T04:56:53;3.09;83.95
66594;DHT22;53450;42.584;23.366;2024-02-28T04:59:18;3.03;84.24
66594;DHT22;53450;42.584;23.366;2024-02-28T05:01:44;2.97;84.30
66594;DHT22;53450;42.584;23.366;2024-02-28T05:04:28;2.97;84.65
66594;DHT22;53450;42.584;23.366;2024-02-28T05:06:53;2.93;84.62
66594;DHT22;53450;42.584;23.366;2024-02-28T05:09:25;2.92;84.51
66594;DHT22;53450;42.584;23.366;2024-02-28T05:11:51;2.95;84.59
66594;DHT22;53450;42.584;23.366;2024-02-28T05:14:17;2.99;84.84
66594;DHT22;53450;42.584;23.366;2024-02-28T05:17:12;3.13;84.22
66594;DHT22;53450;42.584;23.366;2024-02-28T05:19:41;3.09;83.75
66594;DHT22;53450;42.584;23.366;2024-02-28T05:22:16;3.05;83.74
66594;DHT22;53450;42.584;23.366;2024-02-28T05:24:52;2.99;83.93
66594;DHT22;53450;42.584;23.366;2024-02-28T05:27:37;3.07;84.18
66594;DHT22;53450;42.584;23.366;2024-02-28T05:30:34;3.07;83.93
66594;DHT22;53450;42.584;23.366;2024-02-28T05:33:00;3.05;84.18
66594;DHT22;53450;42.584;23.366;2024-02-28T05:35:29;3.09;84.55
66594;DHT22;53450;42.584;23.366;2024-02-28T05:38:10;3.23;84.94
66594;DHT22;53450;42.584;23.366;2024-02-28T05:40:41;3.24;84.80
66594;DHT22;53450;42.584;23.366;2024-02-28T05:43:10;3.28;84.90
66594;DHT22;53450;42.584;23.366;2024-02-28T05:45:47;3.27;85.02
66594;DHT22;53450;42.584;23.366;2024-02-28T05:48:18;3.38;85.16
66594;DHT22;53450;42.584;23.366;2024-02-28T05:50:44;3.53;84.66
66594;DHT22;53450;42.584;23.366;2024-02-28T05:53:18;3.63;84.11
66594;DHT22;53450;42.584;23.366;2024-02-28T05:55:50;3.75;83.92
66594;DHT22;53450;42.584;23.366;2024-02-28T05:58:22;3.77;83.62
66594;DHT22;53450;42.584;23.366;2024-02-28T06:00:53;3.77;83.82
66594;DHT22;53450;42.584;23.366;2024-02-28T06:03:38;3.96;83.39
66594;DHT22;53450;42.584;23.366;2024-02-28T06:06:06;4.13;82.93
66594;DHT22;53450;42.584;23.366;2024-02-28T06:08:39;4.22;82.89
66594;DHT22;53450;42.584;23.366;2024-02-28T06:14:55;4.52;81.76
66594;DHT22;53450;42.584;23.366;2024-02-28T06:17:30;4.67;81.18
66594;DHT22;53450;42.584;23.366;2024-02-28T06:23:57;4.96;80.68
66594;DHT22;53450;42.584;23.366;2024-02-28T06:26:42;5.08;80.33
66594;DHT22;53450;42.584;23.366;2024-02-28T06:29:11;5.15;80.83
66594;DHT22;53450;42.584;23.366;2024-02-28T06:31:37;5.21;81.10
66594;DHT22;53450;42.584;23.366;2024-02-28T06:34:18;5.47;80.50
66594;DHT22;53450;42.584;23.366;2024-02-28T06:36:44;5.69;79.99
66594;DHT22;53450;42.584;23.366;2024-02-28T06:39:10;5.80;79.98
66594;DHT22;53450;42.584;23.366;2024-02-28T06:41:36;5.87;80.42
66594;DHT22;53450;42.584;23.366;2024-02-28T06:44:04;6.10;79.50
66594;DHT22;53450;42.584;23.366;2024-02-28T06:46:29;6.24;79.43
66594;DHT22;53450;42.584;23.366;2024-02-28T06:48:55;6.29;79.16
66594;DHT22;53450;42.584;23.366;2024-02-28T06:51:20;6.39;79.35
66594;DHT22;53450;42.584;23.366;2024-02-28T06:53:46;6.50;79.56
66594;DHT22;53450;42.584;23.366;2024-02-28T06:56:11;6.62;79.75
66594;DHT22;53450;42.584;23.366;2024-02-28T06:58:37;6.63;79.69
66594;DHT22;53450;42.584;23.366;2024-02-28T07:01:06;6.75;78.92
66594;DHT22;53450;42.584;23.366;2024-02-28T07:03:33;6.84;78.58
66594;DHT22;53450;42.584;23.366;2024-02-28T07:05:59;6.97;78.58
66594;DHT22;53450;42.584;23.366;2024-02-28T07:08:25;7.08;78.03
66594;DHT22;53450;42.584;23.366;2024-02-28T07:10:51;7.04;78.57
66594;DHT22;53450;42.584;23.366;2024-02-28T07:13:20;7.04;79.60
66594;DHT22;53450;42.584;23.366;2024-02-28T07:15:47;7.14;79.80
66594;DHT22;53450;42.584;23.366;2024-02-28T07:18:13;7.22;79.00
66594;DHT22;53450;42.584;23.366;2024-02-28T07:20:38;7.39;77.74
66594;DHT22;53450;42.584;23.366;2024-02-28T07:23:04;7.42;78.35
66594;DHT22;53450;42.584;23.366;2024-02-28T07:25:30;7.41;78.67
66594;DHT22;53450;42.584;23.366;2024-02-28T07:27:58;7.58;78.14
66594;DHT22;53450;42.584;23.366;2024-02-28T07:30:27;7.70;75.93
66594;DHT22;53450;42.584;23.366;2024-02-28T07:32:53;7.78;75.26
66594;DHT22;53450;42.584;23.366;2024-02-28T07:35:19;7.87;76.51
66594;DHT22;53450;42.584;23.366;2024-02-28T07:37:46;8.01;76.24
66594;DHT22;53450;42.584;23.366;2024-02-28T07:40:12;8.11;75.00
66594;DHT22;53450;42.584;23.366;2024-02-28T07:42:38;8.11;76.74
66594;DHT22;53450;42.584;23.366;2024-02-28T07:45:09;8.21;76.39
66594;DHT22;53450;42.584;23.366;2024-02-28T07:47:38;8.20;75.44
66594;DHT22;53450;42.584;23.366;2024-02-28T07:50:04;8.41;75.62
66594;DHT22;53450;42.584;23.366;2024-02-28T07:52:30;8.58;74.99
66594;DHT22;53450;42.584;23.366;2024-02-28T07:54:56;8.67;74.94
66594;DHT22;53450;42.584;23.366;2024-02-28T07:57:21;8.59;74.28
66594;DHT22;53450;42.584;23.366;2024-02-28T07:59:47;8.58;74.73
66594;DHT22;53450;42.584;23.366;2024-02-28T08:02:13;8.68;74.13
66594;DHT22;53450;42.584;23.366;2024-02-28T08:04:39;8.78;74.25
66594;DHT22;53450;42.584;23.366;2024-02-28T08:07:05;8.89;74.26
66594;DHT22;53450;42.584;23.366;2024-02-28T08:09:31;9.09;73.52
66594;DHT22;53450;42.584;23.366;2024-02-28T08:11:56;9.23;72.73
66594;DHT22;53450;42.584;23.366;2024-02-28T08:14:24;9.27;72.64
66594;DHT22;53450;42.584;23.366;2024-02-28T08:16:50;9.36;73.19
66594;DHT22;53450;42.584;23.366;2024-02-28T08:19:19;9.43;72.18
66594;DHT22;53450;42.584;23.366;2024-02-28T08:21:45;9.51;72.19
66594;DHT22;53450;42.584;23.366;2024-02-28T08:24:11;9.52;71.78
66594;DHT22;53450;42.584;23.366;2024-02-28T08:26:36;9.59;71.36
66594;DHT22;53450;42.584;23.366;2024-02-28T08:29:05;9.70;71.38
66594;DHT22;53450;42.584;23.366;2024-02-28T08:31:31;9.79;70.88
66594;DHT22;53450;42.584;23.366;2024-02-28T08:33:57;9.87;71.10
66594;DHT22;53450;42.584;23.366;2024-02-28T08:36:23;9.89;70.35
66594;DHT22;53450;42.584;23.366;2024-02-28T08:38:49;10.08;69.67
66594;DHT22;53450;42.584;23.366;2024-02-28T08:41:16;10.09;69.78
66594;DHT22;53450;42.584;23.366;2024-02-28T08:43:42;10.02;69.81
66594;DHT22;53450;42.584;23.366;2024-02-28T08:46:08;10.08;69.93
66594;DHT22;53450;42.584;23.366;2024-02-28T08:48:33;10.06;69.97
66594;DHT22;53450;42.584;23.366;2024-02-28T08:51:02;10.23;68.97
66594;DHT22;53450;42.584;23.366;2024-02-28T08:53:31;10.22;69.15
66594;DHT22;53450;42.584;23.366;2024-02-28T08:55:59;10.32;68.66
66594;DHT22;53450;42.584;23.366;2024-02-28T08:58:25;10.20;68.32
66594;DHT22;53450;42.584;23.366;2024-02-28T09:00:54;10.30;68.10
66594;DHT22;53450;42.584;23.366;2024-02-28T09:03:20;10.35;67.77
66594;DHT22;53450;42.584;23.366;2024-02-28T09:05:47;10.39;67.90
66594;DHT22;53450;42.584;23.366;2024-02-28T09:08:14;10.16;68.61
66594;DHT22;53450;42.584;23.366;2024-02-28T09:10:39;10.23;68.42
66594;DHT22;53450;42.584;23.366;2024-02-28T09:13:05;10.35;68.62
66594;DHT22;53450;42.584;23.366;2024-02-28T09:15:33;10.52;68.29
66594;DHT22;53450;42.584;23.366;2024-02-28T09:17:59;10.66;67.53
66594;DHT22;53450;42.584;23.366;2024-02-28T09:20:29;10.73;68.22
66594;DHT22;53450;42.584;23.366;2024-02-28T09:22:54;10.74;67.77
66594;DHT22;53450;42.584;23.366;2024-02-28T09:25:26;10.73;67.13
66594;DHT22;53450;42.584;23.366;2024-02-28T09:27:51;10.90;67.46
66594;DHT22;53450;42.584;23.366;2024-02-28T09:30:17;10.98;67.28
66594;DHT22;53450;42.584;23.366;2024-02-28T09:32:44;11.10;66.58
66594;DHT22;53450;42.584;23.366;2024-02-28T09:35:09;11.29;65.73
66594;DHT22;53450;42.584;23.366;2024-02-28T09:37:37;11.35;65.39
66594;DHT22;53450;42.584;23.366;2024-02-28T09:40:03;11.38;65.23
66594;DHT22;53450;42.584;23.366;2024-02-28T09:42:31;11.26;64.19
66594;DHT22;53450;42.584;23.366;2024-02-28T09:45:03;11.53;64.12
66594;DHT22;53450;42.584;23.366;2024-02-28T09:47:30;11.74;63.31
66594;DHT22;53450;42.584;23.366;2024-02-28T09:49:57;11.97;62.64
66594;DHT22;53450;42.584;23.366;2024-02-28T09:52:24;11.79;62.06
66594;DHT22;53450;42.584;23.366;2024-02-28T09:54:50;11.66;62.48
66594;DHT22;53450;42.584;23.366;2024-02-28T09:57:16;11.95;62.24
66594;DHT22;53450;42.584;23.366;2024-02-28T09:59:42;11.86;61.15
66594;DHT22;53450;42.584;23.366;2024-02-28T10:02:10;11.83;61.10
66594;DHT22;53450;42.584;23.366;2024-02-28T10:04:37;12.03;60.87
66594;DHT22;53450;42.584;23.366;2024-02-28T10:07:15;12.18;59.84
66594;DHT22;53450;42.584;23.366;2024-02-28T10:09:41;12.10;60.56
66594;DHT22;53450;42.584;23.366;2024-02-28T10:12:07;12.30;60.40
66594;DHT22;53450;42.584;23.366;2024-02-28T10:14:36;12.18;60.81
66594;DHT22;53450;42.584;23.366;2024-02-28T10:17:04;12.07;61.36
66594;DHT22;53450;42.584;23.366;2024-02-28T10:19:30;12.13;62.30
66594;DHT22;53450;42.584;23.366;2024-02-28T10:21:56;12.28;60.84
66594;DHT22;53450;42.584;23.366;2024-02-28T10:24:26;12.46;60.65
66594;DHT22;53450;42.584;23.366;2024-02-28T10:26:53;12.56;60.13
66594;DHT22;53450;42.584;23.366;2024-02-28T10:29:25;12.82;59.70
66594;DHT22;53450;42.584;23.366;2024-02-28T10:32:00;12.86;58.89
66594;DHT22;53450;42.584;23.366;2024-02-28T10:34:30;13.06;58.90
66594;DHT22;53450;42.584;23.366;2024-02-28T10:36:58;13.20;58.01
66594;DHT22;53450;42.584;23.366;2024-02-28T10:39:24;13.21;57.90
66594;DHT22;53450;42.584;23.366;2024-02-28T10:41:52;13.30;58.26
66594;DHT22;53450;42.584;23.366;2024-02-28T10:44:20;13.47;56.41
66594;DHT22;53450;42.584;23.366;2024-02-28T10:46:49;13.53;56.14
66594;DHT22;53450;42.584;23.366;2024-02-28T10:49:37;13.54;56.15
66594;DHT22;53450;42.584;23.366;2024-02-28T10:52:47;13.54;57.74
66594;DHT22;53450;42.584;23.366;2024-02-28T10:55:22;13.28;58.27
66594;DHT22;53450;42.584;23.366;2024-02-28T10:57:59;13.28;58.56
66594;DHT22;53450;42.584;23.366;2024-02-28T11:00:28;13.27;58.59
66594;DHT22;53450;42.584;23.366;2024-02-28T11:02:57;13.43;58.82
66594;DHT22;53450;42.584;23.366;2024-02-28T11:05:35;13.62;58.45
66594;DHT22;53450;42.584;23.366;2024-02-28T11:08:01;13.69;56.53
66594;DHT22;53450;42.584;23.366;2024-02-28T11:10:31;13.82;56.46
66594;DHT22;53450;42.584;23.366;2024-02-28T11:12:59;13.83;56.39
66594;DHT22;53450;42.584;23.366;2024-02-28T11:15:25;13.82;57.28
66594;DHT22;53450;42.584;23.366;2024-02-28T11:17:54;13.92;55.59
66594;DHT22;53450;42.584;23.366;2024-02-28T11:20:22;14.30;54.46
66594;DHT22;53450;42.584;23.366;2024-02-28T11:23:06;14.57;54.29
66594;DHT22;53450;42.584;23.366;2024-02-28T11:25:47;14.71;52.99
66594;DHT22;53450;42.584;23.366;2024-02-28T11:28:23;14.68;52.55
66594;DHT22;53450;42.584;23.366;2024-02-28T11:30:52;14.71;53.36
66594;DHT22;53450;42.584;23.366;2024-02-28T11:37:02;14.47;52.94
66594;DHT22;53450;42.584;23.366;2024-02-28T11:40:21;14.50;50.41
66594;DHT22;53450;42.584;23.366;2024-02-28T11:42:53;14.43;52.79
66594;DHT22;53450;42.584;23.366;2024-02-28T11:45:19;14.39;52.02
66594;DHT22;53450;42.584;23.366;2024-02-28T11:48:04;14.27;52.99
66594;DHT22;53450;42.584;23.366;2024-02-28T11:50:37;14.30;53.79
66594;DHT22;53450;42.584;23.366;2024-02-28T11:53:03;14.43;53.74
66594;DHT22;53450;42.584;23.366;2024-02-28T11:55:34;14.48;53.95
66594;DHT22;53450;42.584;23.366;2024-02-28T11:58:01;14.47;54.11
66594;DHT22;53450;42.584;23.366;2024-02-28T12:00:30;14.29;54.40
66594;DHT22;53450;42.584;23.366;2024-02-28T12:10:09;14.57;54.38
66594;DHT22;53450;42.584;23.366;2024-02-28T12:12:35;14.54;54.08
66594;DHT22;53450;42.584;23.366;2024-02-28T12:15:01;14.34;54.46
66594;DHT22;53450;42.584;23.366;2024-02-28T12:17:29;14.51;53.82
66594;DHT22;53450;42.584;23.366;2024-02-28T12:20:02;14.34;53.92
66594;DHT22;53450;42.584;23.366;2024-02-28T12:22:32;14.48;54.24
66594;DHT22;53450;42.584;23.366;2024-02-28T12:24:57;14.41;54.37
66594;DHT22;53450;42.584;23.366;2024-02-28T12:27:27;14.37;54.50
66594;DHT22;53450;42.584;23.366;2024-02-28T12:29:53;14.13;54.99
66594;DHT22;53450;42.584;23.366;2024-02-28T12:32:21;14.06;55.29
66594;DHT22;53450;42.584;23.366;2024-02-28T12:34:47;13.96;56.00
66594;DHT22;53450;42.584;23.366;2024-02-28T12:37:15;14.12;54.99
66594;DHT22;53450;42.584;23.366;2024-02-28T12:39:56;14.13;54.86
66594;DHT22;53450;42.584;23.366;2024-02-28T12:42:36;14.19;54.75
66594;DHT22;53450;42.584;23.366;2024-02-28T12:45:07;14.26;55.33
66594;DHT22;53450;42.584;23.366;2024-02-28T12:47:33;14.25;55.00
66594;DHT22;53450;42.584;23.366;2024-02-28T12:50:01;14.32;55.89
66594;DHT22;53450;42.584;23.366;2024-02-28T12:52:42;14.15;55.35
66594;DHT22;53450;42.584;23.366;2024-02-28T12:55:11;14.23;55.50
66594;DHT22;53450;42.584;23.366;2024-02-28T12:57:37;14.30;55.85
66594;DHT22;53450;42.584;23.366;2024-02-28T13:00:12;14.27;55.80
66594;DHT22;53450;42.584;23.366;2024-02-28T13:02:41;14.25;55.64
66594;DHT22;53450;42.584;23.366;2024-02-28T13:05:07;14.25;55.31
66594;DHT22;53450;42.584;23.366;2024-02-28T13:07:33;14.27;55.51
66594;DHT22;53450;42.584;23.366;2024-02-28T13:10:02;14.09;55.56
66594;DHT22;53450;42.584;23.366;2024-02-28T13:12:31;14.20;55.29
66594;DHT22;53450;42.584;23.366;2024-02-28T13:14:59;14.27;55.62
66594;DHT22;53450;42.584;23.366;2024-02-28T13:17:33;14.30;55.80
66594;DHT22;53450;42.584;23.366;2024-02-28T13:20:02;14.36;55.36
66594;DHT22;53450;42.584;23.366;2024-02-28T13:22:36;14.41;55.20
66594;DHT22;53450;42.584;23.366;2024-02-28T13:25:01;14.46;55.24
66594;DHT22;53450;42.584;23.366;2024-02-28T13:27:29;14.36;55.96
66594;DHT22;53450;42.584;23.366;2024-02-28T13:29:59;14.44;55.73
66594;DHT22;53450;42.584;23.366;2024-02-28T13:32:29;14.48;55.24
66594;DHT22;53450;42.584;23.366;2024-02-28T13:35:28;14.39;55.48
66594;DHT22;53450;42.584;23.366;2024-02-28T13:38:01;14.46;55.73
66594;DHT22;53450;42.584;23.366;2024-02-28T13:40:35;14.48;55.77
66594;DHT22;53450;42.584;23.366;2024-02-28T13:43:13;14.46;55.53
66594;DHT22;53450;42.584;23.366;2024-02-28T13:45:46;14.29;55.45
66594;DHT22;53450;42.584;23.366;2024-02-28T13:48:22;13.90;55.77
66594;DHT22;53450;42.584;23.366;2024-02-28T13:50:51;14.01;56.66
66594;DHT22;53450;42.584;23.366;2024-02-28T13:53:19;14.04;57.00
66594;DHT22;53450;42.584;23.366;2024-02-28T13:55:45;14.16;56.03
66594;DHT22;53450;42.584;23.366;2024-02-28T13:58:12;14.16;56.11
66594;DHT22;53450;42.584;23.366;2024-02-28T14:00:38;14.16;55.37
66594;DHT22;53450;42.584;23.366;2024-02-28T14:03:07;14.19;55.61
66594;DHT22;53450;42.584;23.366;2024-02-28T14:05:45;14.20;55.91
66594;DHT22;53450;42.584;23.366;2024-02-28T14:08:14;14.22;55.56
66594;DHT22;53450;42.584;23.366;2024-02-28T14:10:39;14.25;56.20
66594;DHT22;53450;42.584;23.366;2024-02-28T14:13:11;14.26;56.11
66594;DHT22;53450;42.584;23.366;2024-02-28T14:15:56;14.32;54.88
66594;DHT22;53450;42.584;23.366;2024-02-28T14:19:00;14.27;54.60
66594;DHT22;53450;42.584;23.366;2024-02-28T14:21:31;14.33;55.50
66594;DHT22;53450;42.584;23.366;2024-02-28T14:24:13;14.29;54.63
66594;DHT22;53450;42.584;23.366;2024-02-28T14:26:52;14.33;54.42
66594;DHT22;53450;42.584;23.366;2024-02-28T14:29:41;14.30;53.86
66594;DHT22;53450;42.584;23.366;2024-02-28T14:32:11;14.27;53.52
66594;DHT22;53450;42.584;23.366;2024-02-28T14:34:39;14.29;54.04
66594;DHT22;53450;42.584;23.366;2024-02-28T14:37:08;14.32;53.91
66594;DHT22;53450;42.584;23.366;2024-02-28T14:39:38;14.44;53.13
66594;DHT22;53450;42.584;23.366;2024-02-28T14:42:07;14.56;52.69
66594;DHT22;53450;42.584;23.366;2024-02-28T14:44:38;14.63;52.94
66594;DHT22;53450;42.584;23.366;2024-02-28T14:47:40;14.74;52.17
66594;DHT22;53450;42.584;23.366;2024-02-28T14:50:12;14.73;52.65
66594;DHT22;53450;42.584;23.366;2024-02-28T14:52:39;14.80;52.15
66594;DHT22;53450;42.584;23.366;2024-02-28T14:58:39;14.84;52.31
66594;DHT22;53450;42.584;23.366;2024-02-28T15:01:27;14.78;51.84
66594;DHT22;53450;42.584;23.366;2024-02-28T15:04:31;14.77;52.02
66594;DHT22;53450;42.584;23.366;2024-02-28T15:07:03;14.78;52.45
66594;DHT22;53450;42.584;23.366;2024-02-28T15:09:52;14.81;51.82
66594;DHT22;53450;42.584;23.366;2024-02-28T15:12:37;14.81;51.79
66594;DHT22;53450;42.584;23.366;2024-02-28T15:15:18;14.76;51.76
66594;DHT22;53450;42.584;23.366;2024-02-28T15:17:49;14.68;51.74
66594;DHT22;53450;42.584;23.366;2024-02-28T15:20:20;14.57;51.80
66594;DHT22;53450;42.584;23.366;2024-02-28T15:22:50;14.57;51.93
66594;DHT22;53450;42.584;23.366;2024-02-28T15:25:19;14.59;52.60
66594;DHT22;53450;42.584;23.366;2024-02-28T15:27:46;14.51;52.16
66594;DHT22;53450;42.584;23.366;2024-02-28T15:30:17;14.23;52.42
66594;DHT22;53450;42.584;23.366;2024-02-28T15:32:43;14.23;52.94
66594;DHT22;53450;42.584;23.366;2024-02-28T15:35:10;14.27;53.20
66594;DHT22;53450;42.584;23.366;2024-02-28T15:37:38;14.09;53.40
66594;DHT22;53450;42.584;23.366;2024-02-28T15:40:39;13.61;55.82
66594;DHT22;53450;42.584;23.366;2024-02-28T15:43:11;13.50;56.85
66594;DHT22;53450;42.584;23.366;2024-02-28T15:45:49;13.53;57.28
66594;DHT22;53450;42.584;23.366;2024-02-28T15:48:15;13.51;57.56
66594;DHT22;53450;42.584;23.366;2024-02-28T15:50:47;13.46;58.30
66594;DHT22;53450;42.584;23.366;2024-02-28T15:53:38;13.20;59.08
66594;DHT22;53450;42.584;23.366;2024-02-28T15:56:23;13.19;59.52
66594;DHT22;53450;42.584;23.366;2024-02-28T16:02:13;12.93;60.29
66594;DHT22;53450;42.584;23.366;2024-02-28T16:05:07;12.85;60.85